createdAt,value
2022-10-13T00:01:21.135Z,19.10
2022-10-13T00:03:48.932Z,21.98
2022-10-13T00:06:18.987Z,18.08
2022-10-13T00:08:46.449Z,24.03
2022-10-13T00:11:25.236Z,22.27
2022-10-13T00:14:00.751Z,20.17
2022-10-13T00:16:29.079Z,19.73
2022-10-13T00:18:56.380Z,19.75
2022-10-13T00:21:26.497Z,20.27
2022-10-13T00:23:54.743Z,23.13
2022-10-13T00:26:25.398Z,20.00
2022-10-13T00:28:53.802Z,22.27
2022-10-13T00:31:23.322Z,22.77
2022-10-13T00:33:50.461Z,21.60
2022-10-13T00:36:17.711Z,21.83
2022-10-13T00:38:45.014Z,17.77
2022-10-13T00:41:12.526Z,18.07
2022-10-13T00:44:00.039Z,18.67
2022-10-13T00:46:37.111Z,22.97
2022-10-13T00:49:12.079Z,18.43
2022-10-13T00:51:48.797Z,20.60
2022-10-13T00:54:24.175Z,18.70
2022-10-13T00:56:52.686Z,21.97
2022-10-13T00:59:29.023Z,19.07
2022-10-13T01:01:58.584Z,17.23
2022-10-13T01:04:32.152Z,17.40
2022-10-13T01:07:00.119Z,17.30
2022-10-13T01:09:27.201Z,18.77
2022-10-13T01:12:18.624Z,24.83
2022-10-13T01:15:14.467Z,18.47
2022-10-13T01:18:01.527Z,16.43
2022-10-13T01:20:49.806Z,17.37
2022-10-13T01:24:10.030Z,15.53
2022-10-13T01:27:26.103Z,16.13
2022-10-13T01:30:18.438Z,15.23
2022-10-13T01:33:09.891Z,19.47
2022-10-13T01:35:54.272Z,15.57
2022-10-13T01:38:34.623Z,16.95
2022-10-13T01:41:25.826Z,16.57
2022-10-13T01:44:03.504Z,17.03
2022-10-13T01:46:38.064Z,13.45
2022-10-13T01:49:14.419Z,21.00
2022-10-13T01:51:44.156Z,17.97
2022-10-13T01:54:11.470Z,17.98
2022-10-13T01:56:38.443Z,16.67
2022-10-13T01:59:14.625Z,15.70
2022-10-13T02:01:56.710Z,16.33
2022-10-13T02:05:05.439Z,14.57
2022-10-13T02:08:05.862Z,14.63
2022-10-13T02:11:06.663Z,18.95
2022-10-13T02:13:37.353Z,18.37
2022-10-13T02:16:05.017Z,17.42
2022-10-13T02:18:35.921Z,20.37
2022-10-13T02:21:04.643Z,16.63
2022-10-13T02:23:32.083Z,12.83
2022-10-13T02:26:00.616Z,16.40
2022-10-13T02:28:29.348Z,18.47
2022-10-13T02:30:56.496Z,18.83
2022-10-13T02:33:23.443Z,18.80
2022-10-13T02:35:50.474Z,20.53
2022-10-13T02:38:17.504Z,15.13
2022-10-13T02:40:45.208Z,13.97
2022-10-13T02:43:12.446Z,14.70
2022-10-13T02:45:39.605Z,16.52
2022-10-13T02:48:06.704Z,14.85
2022-10-13T02:50:33.695Z,16.20
2022-10-13T02:53:00.701Z,15.57
2022-10-13T02:55:27.775Z,13.70
2022-10-13T02:57:55.094Z,17.35
2022-10-13T03:00:23.014Z,19.30
2022-10-13T03:02:49.951Z,18.05
2022-10-13T03:05:17.428Z,16.13
2022-10-13T03:07:44.574Z,14.73
2022-10-13T03:10:11.665Z,17.00
2022-10-13T03:12:38.880Z,13.35
2022-10-13T03:15:06.587Z,14.13
2022-10-13T03:17:33.604Z,13.05
2022-10-13T03:20:00.572Z,14.97
2022-10-13T03:22:27.575Z,13.65
2022-10-13T03:24:54.553Z,13.95
2022-10-13T03:27:21.489Z,14.23
2022-10-13T03:29:48.538Z,17.48
2022-10-13T03:32:16.554Z,17.27
2022-10-13T03:34:43.625Z,16.60
2022-10-13T03:37:10.748Z,13.97
2022-10-13T03:39:37.834Z,16.17
2022-10-13T03:42:04.921Z,13.60
2022-10-13T03:44:31.989Z,15.20
2022-10-13T03:46:59.003Z,18.85
2022-10-13T03:49:25.983Z,11.15
2022-10-13T03:51:53.046Z,15.70
2022-10-13T03:54:20.148Z,16.30
2022-10-13T03:56:47.528Z,17.83
2022-10-13T03:59:17.333Z,17.67
2022-10-13T04:01:44.415Z,16.07
2022-10-13T04:04:12.894Z,17.48
2022-10-13T04:06:39.938Z,18.40
2022-10-13T04:09:06.948Z,16.20
2022-10-13T04:11:34.424Z,15.60
2022-10-13T04:14:01.450Z,14.87
2022-10-13T04:16:30.863Z,17.05
2022-10-13T04:19:04.313Z,18.05
2022-10-13T04:21:34.078Z,17.20
2022-10-13T04:24:02.327Z,17.70
2022-10-13T04:26:34.119Z,17.42
2022-10-13T04:29:04.321Z,17.42
2022-10-13T04:31:32.333Z,18.20
2022-10-13T04:33:59.551Z,16.20
2022-10-13T04:36:27.070Z,17.23
2022-10-13T04:38:55.457Z,21.42
2022-10-13T04:41:23.212Z,21.17
2022-10-13T04:43:54.220Z,22.00
2022-10-13T04:46:25.584Z,17.48
2022-10-13T04:48:53.127Z,15.75
2022-10-13T04:51:23.956Z,20.55
2022-10-13T04:54:02.328Z,17.57
2022-10-13T04:56:29.714Z,19.03
2022-10-13T04:58:56.810Z,18.97
2022-10-13T05:01:25.461Z,19.20
2022-10-13T05:03:59.683Z,19.90
2022-10-13T05:06:31.323Z,19.30
2022-10-13T05:08:59.543Z,17.48
2022-10-13T05:11:28.280Z,19.15
2022-10-13T05:13:56.824Z,15.17
2022-10-13T05:16:25.626Z,20.13
2022-10-13T05:18:55.152Z,25.43
2022-10-13T05:21:26.621Z,18.20
2022-10-13T05:23:55.937Z,20.02
2022-10-13T05:26:29.078Z,17.17
2022-10-13T05:29:00.586Z,17.08
2022-10-13T05:31:29.618Z,17.77
2022-10-13T05:33:57.235Z,19.50
2022-10-13T05:36:31.363Z,20.38
2022-10-13T05:39:02.123Z,16.63
2022-10-13T05:41:30.850Z,23.55
2022-10-13T05:44:04.461Z,21.73
2022-10-13T05:46:31.730Z,16.42
2022-10-13T05:48:59.054Z,24.98
2022-10-13T05:51:36.790Z,20.67
2022-10-13T05:54:31.018Z,22.27
2022-10-13T05:57:14.458Z,21.20
2022-10-13T05:59:51.254Z,19.70
2022-10-13T06:02:20.906Z,19.92
2022-10-13T06:04:51.991Z,21.05
2022-10-13T06:07:19.655Z,20.55
2022-10-13T06:09:46.842Z,18.80
2022-10-13T06:12:13.901Z,20.77
2022-10-13T06:14:40.956Z,20.42
2022-10-13T06:17:08.573Z,20.35
2022-10-13T06:19:35.668Z,21.50
2022-10-13T06:22:03.773Z,23.13
2022-10-13T06:24:31.698Z,21.08
2022-10-13T06:26:58.815Z,19.73
2022-10-13T06:29:25.920Z,20.83
2022-10-13T06:31:52.998Z,19.52
2022-10-13T06:34:19.986Z,21.42
2022-10-13T06:36:49.634Z,19.42
2022-10-13T06:39:16.822Z,20.73
2022-10-13T06:41:44.067Z,18.48
2022-10-13T06:44:11.273Z,17.65
2022-10-13T06:46:38.263Z,23.50
2022-10-13T06:49:05.245Z,23.17
2022-10-13T06:51:32.652Z,20.05
2022-10-13T06:53:59.631Z,17.98
2022-10-13T06:56:26.816Z,21.13
2022-10-13T06:58:53.812Z,18.88
2022-10-13T07:01:20.962Z,18.77
2022-10-13T07:03:51.607Z,21.02
2022-10-13T07:06:19.367Z,21.30
2022-10-13T07:08:46.801Z,21.13
2022-10-13T07:11:16.447Z,17.98
2022-10-13T07:13:46.616Z,19.40
2022-10-13T07:16:15.349Z,16.88
2022-10-13T07:18:42.501Z,19.63
2022-10-13T07:21:10.081Z,19.17
2022-10-13T07:23:37.019Z,21.15
2022-10-13T07:26:14.004Z,16.65
2022-10-13T07:28:42.493Z,17.08
2022-10-13T07:31:14.299Z,18.98
2022-10-13T07:33:44.305Z,16.27
2022-10-13T07:36:12.526Z,18.08
2022-10-13T07:38:40.016Z,19.52
2022-10-13T07:41:10.188Z,15.07
2022-10-13T07:43:37.221Z,16.33
2022-10-13T07:46:05.416Z,18.50
2022-10-13T07:48:33.709Z,16.50
2022-10-13T07:51:08.360Z,19.73
2022-10-13T07:53:36.271Z,15.93
2022-10-13T07:56:05.911Z,17.80
2022-10-13T07:58:33.921Z,17.48
2022-10-13T08:01:02.265Z,19.75
2022-10-13T08:03:30.729Z,18.35
2022-10-13T08:06:02.714Z,20.75
2022-10-13T08:08:30.395Z,17.30
2022-10-13T08:11:31.999Z,17.45
2022-10-13T08:14:01.861Z,19.08
2022-10-13T08:16:30.216Z,17.77
2022-10-13T08:18:58.989Z,18.35
2022-10-13T08:24:17.609Z,19.80
2022-10-13T08:26:49.238Z,15.98
2022-10-13T08:29:22.007Z,13.73
2022-10-13T08:34:24.293Z,15.52
2022-10-13T08:36:54.370Z,11.23
2022-10-13T08:39:23.024Z,12.40
2022-10-13T08:41:50.592Z,12.05
2022-10-13T08:47:44.638Z,11.52
2022-10-13T08:50:23.067Z,12.90
2022-10-13T08:53:13.508Z,12.95
2022-10-13T08:55:46.757Z,13.32
2022-10-13T08:58:28.468Z,13.32
2022-10-13T09:01:07.353Z,13.93
2022-10-13T09:03:52.993Z,13.60
2022-10-13T09:06:28.468Z,10.60
2022-10-13T09:09:02.417Z,12.40
2022-10-13T09:11:36.903Z,12.48
2022-10-13T09:14:25.001Z,12.57
2022-10-13T09:16:54.957Z,12.70
2022-10-13T09:19:36.568Z,10.60
2022-10-13T09:22:25.644Z,14.35
2022-10-13T09:25:07.891Z,11.15
2022-10-13T09:27:46.701Z,13.77
2022-10-13T09:30:49.812Z,13.38
2022-10-13T09:33:24.128Z,11.48
2022-10-13T09:35:57.170Z,14.18
2022-10-13T09:38:25.893Z,13.88
2022-10-13T09:41:11.083Z,11.18
2022-10-13T09:44:11.332Z,12.93
2022-10-13T09:46:48.060Z,10.95
2022-10-13T09:49:41.504Z,12.90
2022-10-13T09:52:19.221Z,11.02
2022-10-13T09:54:53.423Z,12.98
2022-10-13T09:57:44.723Z,10.45
2022-10-13T10:00:24.573Z,9.73
2022-10-13T10:03:11.015Z,11.05
2022-10-13T10:05:52.148Z,11.35
2022-10-13T10:09:04.690Z,10.13
2022-10-13T10:11:42.547Z,15.00
2022-10-13T10:14:34.037Z,13.82
2022-10-13T10:17:26.583Z,11.85
2022-10-13T10:20:18.232Z,10.40
2022-10-13T10:23:05.046Z,11.43
2022-10-13T10:25:57.431Z,14.15
2022-10-13T10:29:16.489Z,11.02
2022-10-13T10:32:11.330Z,11.05
2022-10-13T10:34:53.071Z,15.38
2022-10-13T10:37:52.249Z,13.05
2022-10-13T10:41:12.063Z,12.77
2022-10-13T10:44:00.201Z,13.23
2022-10-13T10:46:34.572Z,10.63
2022-10-13T10:49:25.714Z,11.07
2022-10-13T10:51:53.241Z,8.68
2022-10-13T10:54:52.643Z,11.25
2022-10-13T10:57:48.314Z,8.90
2022-10-13T11:00:22.410Z,11.43
2022-10-13T11:03:25.594Z,9.00
2022-10-13T11:06:06.149Z,9.18
2022-10-13T11:08:41.969Z,9.20
2022-10-13T11:11:26.677Z,10.20
2022-10-13T11:14:22.531Z,9.75
2022-10-13T11:17:24.043Z,11.20
2022-10-13T11:19:51.539Z,10.73
2022-10-13T11:22:22.638Z,11.93
2022-10-13T11:24:57.630Z,10.75
2022-10-13T11:27:39.943Z,8.82
2022-10-13T11:31:18.411Z,11.75
2022-10-13T11:33:47.827Z,11.82
2022-10-13T11:36:33.199Z,9.32
2022-10-13T11:42:24.364Z,9.57
2022-10-13T11:45:01.610Z,13.13
2022-10-13T11:47:34.112Z,12.90
2022-10-13T11:50:35.021Z,10.48
2022-10-13T11:53:13.980Z,10.02
2022-10-13T11:56:03.271Z,10.80
2022-10-13T11:58:33.597Z,9.93
2022-10-13T12:01:00.482Z,11.65
2022-10-13T12:03:43.498Z,8.80
2022-10-13T12:06:16.627Z,10.10
2022-10-13T12:08:51.459Z,11.18
2022-10-13T12:11:29.239Z,10.00
2022-10-13T12:13:57.487Z,12.10
2022-10-13T12:16:24.563Z,12.55
2022-10-13T12:18:52.420Z,10.13
2022-10-13T12:21:22.885Z,13.35
2022-10-13T12:23:52.467Z,13.93
2022-10-13T12:26:25.359Z,16.42
2022-10-13T12:29:12.326Z,12.30
2022-10-13T12:31:42.069Z,13.55
2022-10-13T12:34:32.935Z,13.68
2022-10-13T12:37:40.003Z,11.15
2022-10-13T12:40:13.723Z,11.65
2022-10-13T12:42:41.541Z,13.85
2022-10-13T12:45:34.739Z,16.25
2022-10-13T12:48:01.742Z,14.68
2022-10-13T12:50:37.074Z,12.35
2022-10-13T12:53:19.024Z,14.30
2022-10-13T12:55:59.147Z,14.15
2022-10-13T12:58:34.230Z,16.50
2022-10-13T13:01:12.414Z,19.30
2022-10-13T13:03:43.353Z,14.32
2022-10-13T13:06:23.617Z,18.30
2022-10-13T13:09:24.875Z,13.85
2022-10-13T13:12:11.360Z,14.60
2022-10-13T13:14:42.648Z,13.45
2022-10-13T13:17:32.997Z,13.10
2022-10-13T13:20:31.208Z,15.95
2022-10-13T13:22:58.252Z,13.38
2022-10-13T13:25:25.498Z,13.02
2022-10-13T13:27:53.039Z,16.52
2022-10-13T13:30:23.234Z,14.13
2022-10-13T13:32:50.732Z,11.88
2022-10-13T13:35:17.992Z,10.10
2022-10-13T13:37:51.566Z,16.35
2022-10-13T13:40:27.931Z,13.30
2022-10-13T13:42:55.873Z,12.13
2022-10-13T13:45:26.546Z,13.63
2022-10-13T13:47:59.486Z,13.45
2022-10-13T13:50:35.486Z,14.88
2022-10-13T13:53:02.722Z,11.50
2022-10-13T13:55:30.233Z,11.07
2022-10-13T13:57:58.284Z,10.80
2022-10-13T14:00:25.519Z,12.38
2022-10-13T14:02:52.556Z,9.80
2022-10-13T14:05:20.048Z,13.30
2022-10-13T14:07:47.184Z,10.43
2022-10-13T14:10:14.418Z,11.32
2022-10-13T14:12:41.387Z,8.93
2022-10-13T14:15:09.317Z,9.43
2022-10-13T14:17:36.390Z,10.73
2022-10-13T14:20:03.827Z,9.63
2022-10-13T14:22:30.793Z,10.68
2022-10-13T14:24:57.814Z,13.48
2022-10-13T14:27:25.126Z,11.52
2022-10-13T14:29:52.109Z,11.93
2022-10-13T14:32:19.520Z,12.55
2022-10-13T14:34:46.861Z,14.38
2022-10-13T14:37:14.211Z,11.95
2022-10-13T14:39:41.571Z,14.05
2022-10-13T14:42:08.655Z,12.30
2022-10-13T14:44:35.855Z,15.43
2022-10-13T14:47:02.947Z,11.13
2022-10-13T14:49:29.970Z,16.15
2022-10-13T14:51:57.108Z,15.00
2022-10-13T14:54:25.464Z,14.57
2022-10-13T14:56:52.417Z,16.35
2022-10-13T14:59:19.652Z,15.20
2022-10-13T15:01:48.939Z,18.50
2022-10-13T15:04:15.925Z,18.40
2022-10-13T15:06:43.007Z,14.27
2022-10-13T15:09:10.790Z,13.88
2022-10-13T15:11:37.973Z,14.68
2022-10-13T15:14:04.999Z,17.70
2022-10-13T15:16:33.652Z,15.43
2022-10-13T15:19:00.644Z,16.33
2022-10-13T15:21:27.678Z,12.27
2022-10-13T15:23:55.406Z,16.25
2022-10-13T15:26:22.938Z,13.85
2022-10-13T15:28:52.912Z,13.55
2022-10-13T15:31:22.418Z,14.38
2022-10-13T15:33:53.240Z,17.05
2022-10-13T15:36:22.044Z,11.65
2022-10-13T15:38:49.200Z,10.27
2022-10-13T15:41:16.595Z,13.07
2022-10-13T15:43:43.784Z,12.80
2022-10-13T15:46:24.162Z,11.00
2022-10-13T15:48:53.384Z,11.15
2022-10-13T15:51:24.085Z,10.40
2022-10-13T15:53:51.418Z,9.88
2022-10-13T15:56:18.790Z,10.73
2022-10-13T15:58:45.841Z,8.90
2022-10-13T16:01:14.024Z,11.43
2022-10-13T16:03:41.959Z,9.18
2022-10-13T16:06:12.166Z,8.18
2022-10-13T16:08:40.852Z,10.50
2022-10-13T16:11:13.717Z,13.57
2022-10-13T16:13:41.634Z,15.90
2022-10-13T16:16:10.256Z,11.98
2022-10-13T16:18:41.448Z,12.30
2022-10-13T16:21:19.011Z,10.38
2022-10-13T16:23:47.704Z,12.18
2022-10-13T16:26:17.424Z,15.02
2022-10-13T16:28:46.543Z,12.40
2022-10-13T16:31:16.607Z,15.90
2022-10-13T16:33:45.728Z,17.35
2022-10-13T16:36:16.760Z,12.63
2022-10-13T16:38:45.910Z,15.10
2022-10-13T16:41:18.964Z,17.38
2022-10-13T16:43:47.958Z,12.93
2022-10-13T16:46:18.974Z,15.30
2022-10-13T16:48:47.539Z,14.30
2022-10-13T16:51:19.174Z,15.65
2022-10-13T16:54:02.945Z,13.25
2022-10-13T16:56:31.701Z,14.73
2022-10-13T16:59:05.741Z,18.50
2022-10-13T17:01:34.870Z,17.73
2022-10-13T17:04:03.067Z,15.98
2022-10-13T17:06:30.465Z,16.73
2022-10-13T17:08:59.522Z,17.75
2022-10-13T17:11:30.470Z,18.17
2022-10-13T17:13:59.543Z,16.92
2022-10-13T17:16:27.534Z,19.73
2022-10-13T17:18:55.137Z,18.00
2022-10-13T17:21:22.556Z,19.83
2022-10-13T17:23:49.933Z,16.02
2022-10-13T17:26:18.728Z,17.33
2022-10-13T17:28:46.003Z,19.30
2022-10-13T17:31:17.628Z,22.35
2022-10-13T17:33:47.395Z,21.80
2022-10-13T17:36:19.427Z,19.05
2022-10-13T17:38:48.092Z,17.63
2022-10-13T17:41:17.382Z,22.60
2022-10-13T17:43:44.613Z,26.23
2022-10-13T17:46:37.004Z,21.88
2022-10-13T17:49:04.033Z,20.50
2022-10-13T17:51:31.148Z,22.90
2022-10-13T17:53:59.731Z,22.05
2022-10-13T17:56:27.241Z,28.27
2022-10-13T17:58:54.719Z,25.80
2022-10-13T18:01:26.530Z,25.67
2022-10-13T18:03:57.151Z,24.77
2022-10-13T18:06:24.566Z,30.15
2022-10-13T18:08:51.874Z,26.15
2022-10-13T18:11:22.900Z,26.75
2022-10-13T18:13:50.686Z,22.85
2022-10-13T18:16:21.438Z,25.40
2022-10-13T18:18:50.215Z,31.58
2022-10-13T18:21:22.317Z,26.25
2022-10-13T18:23:49.784Z,28.58
2022-10-13T18:26:19.505Z,26.63
2022-10-13T18:28:48.965Z,25.85
2022-10-13T18:31:37.033Z,31.73
2022-10-13T18:34:08.067Z,26.65
2022-10-13T18:36:43.073Z,26.45
2022-10-13T18:39:19.613Z,25.08
2022-10-13T18:41:47.928Z,23.10
2022-10-13T18:44:15.712Z,23.48
2022-10-13T18:46:43.139Z,23.63
2022-10-13T18:49:15.105Z,23.63
2022-10-13T18:51:42.403Z,27.70
2022-10-13T18:54:10.200Z,21.85
2022-10-13T18:56:37.676Z,23.02
2022-10-13T18:59:08.235Z,21.42
2022-10-13T19:01:37.080Z,22.50
2022-10-13T19:04:05.647Z,19.98
2022-10-13T19:06:33.216Z,18.75
2022-10-13T19:09:05.240Z,19.63
2022-10-13T19:11:33.610Z,19.95
2022-10-13T19:14:01.622Z,19.67
2022-10-13T19:16:31.225Z,17.10
2022-10-13T19:18:58.895Z,17.92
2022-10-13T19:21:26.304Z,17.70
2022-10-13T19:23:53.627Z,18.33
2022-10-13T19:26:24.587Z,17.45
2022-10-13T19:29:05.550Z,15.75
2022-10-13T19:31:34.629Z,16.98
2022-10-13T19:34:03.296Z,21.92
2022-10-13T19:36:40.634Z,15.48
2022-10-13T19:39:22.245Z,16.17
2022-10-13T19:41:51.055Z,15.95
2022-10-13T19:44:20.440Z,18.38
2022-10-13T19:46:48.070Z,19.80
2022-10-13T19:49:17.755Z,18.08
2022-10-13T19:51:45.994Z,19.15
2022-10-13T19:54:14.905Z,20.98
2022-10-13T19:56:46.044Z,17.55
2022-10-13T19:59:13.344Z,19.98
2022-10-13T20:01:41.117Z,20.13
2022-10-13T20:04:10.654Z,20.42
2022-10-13T20:06:38.301Z,22.65
2022-10-13T20:09:06.035Z,21.02
2022-10-13T20:11:33.108Z,21.38
2022-10-13T20:14:00.057Z,22.88
2022-10-13T20:16:27.227Z,21.98
2022-10-13T20:18:58.562Z,23.95
2022-10-13T20:21:27.393Z,22.48
2022-10-13T20:23:54.792Z,26.38
2022-10-13T20:26:22.786Z,21.17
2022-10-13T20:28:52.193Z,19.70
2022-10-13T20:31:21.721Z,21.35
2022-10-13T20:33:52.782Z,23.63
2022-10-13T20:36:19.726Z,26.17
2022-10-13T20:38:51.559Z,25.23
2022-10-13T20:41:31.318Z,25.23
2022-10-13T20:44:03.742Z,24.98
2022-10-13T20:46:33.380Z,23.13
2022-10-13T20:49:16.338Z,24.77
2022-10-13T20:51:47.371Z,24.10
2022-10-13T20:54:16.268Z,24.10
2022-10-13T20:56:43.722Z,26.88
2022-10-13T20:59:14.777Z,24.23
2022-10-13T21:01:42.465Z,29.70
2022-10-13T21:04:09.798Z,23.83
2022-10-13T21:06:37.159Z,25.95
2022-10-13T21:09:07.152Z,27.02
2022-10-13T21:11:34.556Z,25.02
2022-10-13T21:14:06.498Z,24.02
2022-10-13T21:16:34.224Z,26.80
2022-10-13T21:19:01.504Z,26.23
2022-10-13T21:21:32.539Z,25.48
2022-10-13T21:24:04.476Z,23.67
2022-10-13T21:26:34.176Z,27.45
2022-10-13T21:29:02.139Z,26.50
2022-10-13T21:31:29.743Z,26.88
2022-10-13T21:33:57.435Z,25.77
2022-10-13T21:36:29.896Z,31.25
2022-10-13T21:39:04.965Z,23.85
2022-10-13T21:41:32.122Z,25.88
2022-10-13T21:43:59.390Z,27.83
2022-10-13T21:46:32.436Z,25.20
2022-10-13T21:49:04.215Z,25.17
2022-10-13T21:51:38.093Z,24.73
2022-10-13T21:54:09.386Z,24.30
2022-10-13T21:56:37.702Z,25.60
2022-10-13T21:59:05.913Z,31.00
2022-10-13T22:01:34.247Z,25.10
2022-10-13T22:04:02.516Z,22.95
2022-10-13T22:06:32.223Z,24.65
2022-10-13T22:09:02.282Z,22.92
2022-10-13T22:11:32.324Z,26.90
2022-10-13T22:14:00.269Z,26.42
2022-10-13T22:16:33.215Z,23.58
2022-10-13T22:19:00.290Z,26.02
2022-10-13T22:21:31.302Z,27.65
2022-10-13T22:24:01.161Z,27.27
2022-10-13T22:26:31.261Z,26.67
2022-10-13T22:29:00.882Z,27.20
2022-10-13T22:31:28.614Z,28.38
2022-10-13T22:33:55.552Z,31.88
2022-10-13T22:36:25.266Z,31.08
2022-10-13T22:38:58.836Z,29.00
2022-10-13T22:41:26.264Z,29.50
2022-10-13T22:43:58.825Z,32.55
2022-10-13T22:46:32.799Z,33.63
2022-10-13T22:49:00.332Z,33.55
2022-10-13T22:51:30.527Z,28.52
2022-10-13T22:53:58.519Z,31.88
2022-10-13T22:56:29.668Z,36.42
2022-10-13T22:59:04.449Z,34.17
2022-10-13T23:01:32.311Z,34.15
2022-10-13T23:04:00.035Z,32.88
2022-10-13T23:06:33.772Z,31.83
2022-10-13T23:09:03.157Z,28.90
2022-10-13T23:11:30.485Z,25.52
2022-10-13T23:13:57.451Z,25.45
2022-10-13T23:16:26.330Z,27.10
2022-10-13T23:18:54.344Z,26.45
2022-10-13T23:21:23.399Z,23.25
2022-10-13T23:23:59.368Z,24.17
2022-10-13T23:26:27.697Z,25.25
2022-10-13T23:28:58.736Z,23.45
2022-10-13T23:31:27.659Z,26.02
2022-10-13T23:33:54.871Z,24.30
2022-10-13T23:36:26.097Z,27.20
2022-10-13T23:38:58.512Z,24.92
2022-10-13T23:41:27.579Z,22.67
2022-10-13T23:43:54.951Z,25.95
2022-10-13T23:46:22.026Z,35.30
2022-10-13T23:48:49.151Z,24.17
2022-10-13T23:51:20.424Z,22.95
2022-10-13T23:53:47.913Z,22.90
2022-10-13T23:56:15.286Z,22.20
2022-10-13T23:58:43.858Z,23.73
